Time;durP1;ratioP1;P1;durP2;ratioP2;P2;SDS_P1;SDS_P2;PMS_P1;PMS_P2;Temp;Humidity;BMP_temperature;BMP_pressure;BME280_temperature;BME280_humidity;BME280_pressure;Samples;Min_cycle;Max_cycle;Signal;HPM_P1;HPM_P2
2022/05/31 00:02:24;;;;;;;1999.90;999.90;;;;;;;14.94;53.40;95023.22;4972063;28;20026;-71
2022/05/31 00:04:50;;;;;;;1999.90;999.90;;;;;;;14.96;53.64;95026.38;4968965;28;20031;-70
2022/05/31 00:07:16;;;;;;;1999.90;999.90;;;;;;;14.94;53.77;95022.44;4970240;28;20502;-70
2022/05/31 00:09:41;;;;;;;1999.90;999.90;;;;;;;14.90;53.66;95022.34;4971949;28;20038;-71
2022/05/31 00:12:07;;;;;;;1999.90;999.90;;;;;;;14.91;53.49;95029.28;4971858;28;20361;-70
2022/05/31 00:14:33;;;;;;;1999.90;999.90;;;;;;;14.81;53.44;95013.63;4971884;28;20538;-70
2022/05/31 00:17:00;;;;;;;1999.90;999.90;;;;;;;14.77;53.38;95020.78;4970558;28;20102;-71
2022/05/31 00:19:25;;;;;;;1999.90;999.90;;;;;;;14.78;53.68;95025.78;4969948;28;20034;-70
2022/05/31 00:22:09;;;;;;;1999.90;999.90;;;;;;;14.84;53.51;95031.69;4970328;28;20030;-71
2022/05/31 00:24:35;;;;;;;1999.90;999.90;;;;;;;14.83;53.42;95030.91;4971801;28;20062;-70
2022/05/31 00:27:04;;;;;;;1999.90;999.90;;;;;;;14.76;53.74;95035.28;4970435;28;20037;-70
2022/05/31 00:29:30;;;;;;;1999.90;999.90;;;;;;;14.81;53.48;95029.72;4970187;28;20058;-70
2022/05/31 00:31:59;;;;;;;1999.90;999.90;;;;;;;14.69;53.69;95013.59;4969532;28;20067;-71
2022/05/31 00:34:25;;;;;;;1999.90;999.90;;;;;;;14.76;53.57;95036.06;4970466;28;20023;-70
2022/05/31 00:36:51;;;;;;;1999.90;999.90;;;;;;;14.71;53.77;95022.09;4970301;28;20030;-70
2022/05/31 00:39:17;;;;;;;1999.90;999.90;;;;;;;14.65;53.74;95016.19;4969769;28;20483;-70
2022/05/31 00:41:42;;;;;;;1999.90;999.90;;;;;;;14.70;53.55;95025.91;4971334;28;20065;-70
2022/05/31 00:44:11;;;;;;;1999.90;999.90;;;;;;;14.64;53.46;95016.50;4970051;28;20799;-70
2022/05/31 00:46:43;;;;;;;1999.90;999.90;;;;;;;14.65;53.50;95015.41;4970675;28;20365;-70
2022/05/31 00:49:11;;;;;;;;;;;;;;;14.72;53.91;95026.34;4970726;28;20081;-70
2022/05/31 00:51:46;;;;;;;1999.90;999.90;;;;;;;14.74;53.74;95024.09;4971556;28;19921;-71
2022/05/31 00:54:16;;;;;;;1999.90;999.90;;;;;;;14.63;53.60;95009.59;4971165;28;20026;-70
2022/05/31 00:56:43;;;;;;;1999.90;999.90;;;;;;;14.71;53.86;95030.13;4971294;28;20027;-70
2022/05/31 00:59:19;;;;;;;1999.90;999.90;;;;;;;14.73;53.73;95030.56;4970970;28;20107;-71
2022/05/31 01:01:47;;;;;;;1999.90;999.90;;;;;;;14.61;53.89;95022.53;4969978;28;20034;-70
2022/05/31 01:04:14;;;;;;;1999.90;999.90;;;;;;;14.66;54.00;95022.31;4969828;28;20587;-70
2022/05/31 01:06:40;;;;;;;1999.90;999.90;;;;;;;14.66;53.93;95025.00;4971093;28;20487;-71
2022/05/31 01:09:06;;;;;;;1999.90;999.90;;;;;;;14.74;53.65;95032.13;4969705;28;20027;-70
2022/05/31 01:11:38;;;;;;;1999.90;999.90;;;;;;;14.67;53.60;95024.66;4969817;28;20085;-70
2022/05/31 01:14:04;;;;;;;1999.90;999.90;;;;;;;14.74;53.27;95021.41;4969952;28;20118;-70
2022/05/31 01:16:30;;;;;;;1999.90;999.90;;;;;;;14.81;53.22;95024.34;4969732;28;20027;-70
2022/05/31 01:18:55;;;;;;;1999.90;999.90;;;;;;;14.77;53.19;95016.19;4968721;28;20026;-70
2022/05/31 01:21:20;;;;;;;1999.90;999.90;;;;;;;14.61;53.10;94988.50;4970825;28;20392;-71
2022/05/31 01:24:05;;;;;;;1999.90;999.90;;;;;;;14.79;53.27;95013.97;4969712;28;20038;-71
2022/05/31 01:26:40;;;;;;;1999.90;999.90;;;;;;;14.89;53.36;95022.66;4968407;28;20023;-70
2022/05/31 01:29:20;;;;;;;1999.90;999.90;;;;;;;14.94;53.26;95015.19;4969423;28;20057;-71
2022/05/31 01:31:59;;;;;;;1999.90;999.90;;;;;;;14.95;53.09;95013.31;4968338;28;20027;-70
2022/05/31 01:34:28;;;;;;;1999.90;999.90;;;;;;;14.94;52.79;95009.84;4971485;28;20026;-70
2022/05/31 01:36:56;;;;;;;1999.90;999.90;;;;;;;15.04;52.44;95012.06;4974900;28;20101;-70
2022/05/31 01:39:46;;;;;;;1999.90;999.90;;;;;;;15.09;52.79;95008.41;4973120;28;20117;-70
2022/05/31 01:42:21;;;;;;;1999.90;999.90;;;;;;;15.14;52.49;95002.03;4972989;28;20084;-70
2022/05/31 01:44:51;;;;;;;1999.90;999.90;;;;;;;15.02;52.93;95008.19;4973432;28;20035;-70
2022/05/31 01:47:17;;;;;;;1999.90;999.90;;;;;;;14.94;52.32;94983.06;4973685;28;20027;-70
2022/05/31 01:49:46;;;;;;;1999.90;999.90;;;;;;;15.17;52.33;94994.13;4972711;28;20035;-70
2022/05/31 01:52:13;;;;;;;1999.90;999.90;;;;;;;15.24;51.87;94998.91;4972987;28;20109;-70
2022/05/31 01:54:39;;;;;;;1999.90;999.90;;;;;;;15.22;51.78;94988.53;4973291;28;20452;-70
2022/05/31 01:57:08;;;;;;;1999.90;999.90;;;;;;;15.18;51.64;94978.81;4973448;28;20058;-70
2022/05/31 01:59:40;;;;;;;1999.90;999.90;;;;;;;15.20;51.79;94974.69;4973943;28;20498;-71
2022/05/31 02:02:06;;;;;;;1999.90;999.90;;;;;;;15.24;51.44;94988.97;4973215;28;20072;-71
2022/05/31 02:04:32;;;;;;;1999.90;999.90;;;;;;;15.27;51.56;94992.88;4972833;28;20066;-71
2022/05/31 02:07:20;;;;;;;1999.90;999.90;;;;;;;15.28;51.60;94992.53;4974479;28;20065;-71
2022/05/31 02:09:48;;;;;;;1999.90;999.90;;;;;;;15.24;51.66;94994.31;4974002;28;20033;-70
2022/05/31 02:12:15;;;;;;;1999.90;999.90;;;;;;;15.20;51.38;94993.44;4973606;28;20507;-71
2022/05/31 02:14:41;;;;;;;1999.90;999.90;;;;;;;15.24;51.56;94988.97;4973888;28;20057;-72
2022/05/31 02:17:07;;;;;;;1999.90;999.90;;;;;;;15.11;51.11;94959.84;4971021;28;20094;-70
2022/05/31 02:19:32;;;;;;;1999.90;999.90;;;;;;;15.24;50.95;94991.63;4973451;28;20049;-70
2022/05/31 02:22:02;;;;;;;1999.90;999.90;;;;;;;15.11;51.19;94987.44;4972794;28;20124;-71
2022/05/31 02:24:29;;;;;;;1999.90;999.90;;;;;;;15.18;51.01;94995.66;4973291;28;20027;-70
2022/05/31 02:26:55;;;;;;;1999.90;999.90;;;;;;;15.17;50.75;94996.78;4972806;28;20029;-71
2022/05/31 02:29:26;;;;;;;1999.90;999.90;;;;;;;15.04;51.39;94989.88;4972045;28;20150;-71
2022/05/31 02:31:52;;;;;;;1999.90;999.90;;;;;;;15.06;51.28;94988.44;4972688;28;20472;-70
2022/05/31 02:34:22;;;;;;;1999.90;999.90;;;;;;;15.07;51.36;94989.97;4973452;28;20030;-72
2022/05/31 02:36:48;;;;;;;1999.90;999.90;;;;;;;15.06;51.27;94993.00;4972438;28;20026;-70
2022/05/31 02:39:13;;;;;;;1999.90;999.90;;;;;;;15.03;51.36;94986.41;4971897;28;20042;-71
2022/05/31 02:41:39;;;;;;;1999.90;999.90;;;;;;;15.19;51.38;95007.94;4973645;28;20822;-71
2022/05/31 02:44:05;;;;;;;1999.90;999.90;;;;;;;15.19;51.34;94996.44;4971256;28;20039;-70
2022/05/31 02:46:31;;;;;;;1999.90;999.90;;;;;;;14.77;51.81;94980.59;4971427;28;20506;-70
2022/05/31 02:48:56;;;;;;;1999.90;999.90;;;;;;;14.90;52.21;94997.47;4971813;28;20031;-70
2022/05/31 02:51:21;;;;;;;1999.90;999.90;;;;;;;14.83;51.99;94987.31;4973172;28;20411;-70
2022/05/31 02:53:47;;;;;;;1999.90;999.90;;;;;;;14.90;52.14;95000.16;4973211;28;20085;-70
2022/05/31 02:56:12;;;;;;;1999.90;999.90;;;;;;;14.99;52.15;95011.50;4971047;28;20034;-70
2022/05/31 02:58:38;;;;;;;1999.90;999.90;;;;;;;15.01;52.19;95012.75;4971551;28;20030;-70
2022/05/31 03:01:18;;;;;;;1999.90;999.90;;;;;;;15.11;52.03;95016.13;4970915;28;20122;-70
2022/05/31 03:03:44;;;;;;;1999.90;999.90;;;;;;;15.15;51.66;95008.94;4971519;28;20026;-70
2022/05/31 03:06:09;;;;;;;1999.90;999.90;;;;;;;15.32;51.96;95017.53;4971833;28;20027;-71
2022/05/31 03:08:34;;;;;;;1999.90;999.90;;;;;;;15.45;51.57;95012.16;4971467;28;20027;-70
2022/05/31 03:11:01;;;;;;;1999.90;999.90;;;;;;;15.45;50.83;95022.88;4972167;28;20034;-71
2022/05/31 03:13:29;;;;;;;1999.90;999.90;;;;;;;15.63;50.62;95012.69;4971758;28;20026;-71
2022/05/31 03:15:58;;;;;;;1999.90;999.90;;;;;;;15.63;50.21;95028.78;4970280;28;20026;-70
2022/05/31 03:18:29;;;;;;;1999.90;999.90;;;;;;;15.53;50.50;95012.03;4972627;28;20572;-71
2022/05/31 03:20:58;;;;;;;1999.90;999.90;;;;;;;15.58;50.41;95022.53;4972568;28;20467;-71
2022/05/31 03:23:29;;;;;;;1999.90;999.90;;;;;;;15.50;50.45;95010.03;4971261;28;20070;-71
2022/05/31 03:25:58;;;;;;;1999.90;999.90;;;;;;;15.45;50.61;95014.84;4972170;28;20061;-71
2022/05/31 03:28:25;;;;;;;1999.90;999.90;;;;;;;15.44;50.96;95016.75;4970970;28;20022;-71
2022/05/31 03:30:51;;;;;;;1999.90;999.90;;;;;;;15.44;50.82;95002.56;4970718;28;20041;-72
2022/05/31 03:33:16;;;;;;;1999.90;999.90;;;;;;;15.49;50.89;95005.78;4972443;28;20030;-71
2022/05/31 03:35:42;;;;;;;1999.90;999.90;;;;;;;15.60;50.88;95014.16;4970981;28;20127;-71
2022/05/31 03:38:08;;;;;;;1999.90;999.90;;;;;;;15.68;50.59;95023.22;4971113;28;20062;-71
2022/05/31 03:43:17;;;;;;;1999.90;999.90;;;;;;;15.58;50.31;95019.84;4972504;28;20038;-70
2022/05/31 03:45:43;;;;;;;1999.90;999.90;;;;;;;15.54;50.28;95010.91;4971203;28;20038;-69
2022/05/31 03:48:09;;;;;;;1999.90;999.90;;;;;;;15.58;50.21;95011.81;4971069;28;20397;-70
2022/05/31 03:50:38;;;;;;;1999.90;999.90;;;;;;;15.67;50.03;95019.75;4971034;28;20034;-69
2022/05/31 03:53:04;;;;;;;1999.90;999.90;;;;;;;15.64;50.06;95004.34;4972169;28;20022;-70
2022/05/31 03:55:30;;;;;;;1999.90;999.90;;;;;;;15.65;49.74;95008.56;4972321;28;20110;-70
2022/05/31 03:57:55;;;;;;;1999.90;999.90;;;;;;;15.58;49.93;95003.75;4969871;28;20461;-73
2022/05/31 04:00:21;;;;;;;1999.90;999.90;;;;;;;15.60;50.51;95006.09;4971465;28;20030;-70
2022/05/31 04:02:46;;;;;;;1999.90;999.90;;;;;;;15.69;50.10;95004.09;4971504;28;20023;-71
2022/05/31 04:05:13;;;;;;;1999.90;999.90;;;;;;;15.79;49.61;95017.03;4970211;28;20050;-70
2022/05/31 04:07:38;;;;;;;1999.90;999.90;;;;;;;15.89;49.51;95028.41;4970917;28;20034;-66
2022/05/31 04:10:06;;;;;;;1999.90;999.90;;;;;;;16.16;49.44;95024.97;4970190;28;20038;-66
2022/05/31 04:12:34;;;;;;;1999.90;999.90;;;;;;;16.30;49.16;95014.63;4970508;28;20073;-66
2022/05/31 04:15:01;;;;;;;1999.90;999.90;;;;;;;16.32;48.87;94993.56;4969550;28;20042;-65
2022/05/31 04:17:26;;;;;;;1999.90;999.90;;;;;;;16.71;47.95;95027.94;4969861;28;20089;-66
2022/05/31 04:19:52;;;;;;;1999.90;999.90;;;;;;;16.83;47.50;95019.81;4971157;28;20114;-66
2022/05/31 04:22:17;;;;;;;1999.90;999.90;;;;;;;17.06;47.09;95018.09;4971400;28;20113;-70
2022/05/31 04:24:42;;;;;;;1999.90;999.90;;;;;;;17.23;46.54;95018.84;4969977;28;20035;-75
2022/05/31 04:27:15;;;;;;;1999.90;999.90;;;;;;;17.48;46.24;95028.28;4970963;28;20039;-68
2022/05/31 04:29:40;;;;;;;1999.90;999.90;;;;;;;17.68;45.71;95031.78;4969718;28;20037;-73
2022/05/31 04:32:06;;;;;;;1999.90;999.90;;;;;;;17.76;45.51;95035.41;4969748;28;20415;-71
2022/05/31 04:34:31;;;;;;;1999.90;999.90;;;;;;;17.85;45.08;95028.72;4969655;28;20027;-66
2022/05/31 04:36:56;;;;;;;1999.90;999.90;;;;;;;17.95;44.91;95035.44;4971631;28;20031;-66
2022/05/31 04:39:22;;;;;;;1999.90;999.90;;;;;;;17.98;44.78;95039.38;4970768;28;20038;-74
2022/05/31 04:41:47;;;;;;;1999.90;999.90;;;;;;;18.06;44.40;95039.13;4970078;28;20027;-71
2022/05/31 04:44:15;;;;;;;1999.90;999.90;;;;;;;18.25;43.83;95048.34;4970258;28;20070;-71
2022/05/31 04:46:42;;;;;;;1999.90;999.90;;;;;;;18.32;43.84;95041.19;4970145;28;20058;-74
2022/05/31 04:49:07;;;;;;;1999.90;999.90;;;;;;;18.22;44.34;95052.56;4969765;28;20019;-65
2022/05/31 04:51:34;;;;;;;1999.90;999.90;;;;;;;18.16;44.11;95052.03;4971009;28;20037;-65
2022/05/31 04:54:00;;;;;;;1999.90;999.90;;;;;;;18.21;43.90;95045.59;4971114;28;20034;-66
2022/05/31 04:56:26;;;;;;;1999.90;999.90;;;;;;;18.13;43.89;95042.00;4969728;28;20073;-65
2022/05/31 04:58:52;;;;;;;1999.90;999.90;;;;;;;18.09;43.95;95038.44;4968921;28;20483;-64
2022/05/31 05:01:18;;;;;;;1999.90;999.90;;;;;;;18.13;44.09;95052.75;4965415;28;20082;-64
2022/05/31 05:03:46;;;;;;;1999.90;999.90;;;;;;;17.98;44.03;95029.38;4963990;28;20732;-71
2022/05/31 05:06:13;;;;;;;1999.90;999.90;;;;;;;17.96;44.01;95031.63;4970732;28;20114;-69
2022/05/31 05:08:40;;;;;;;1999.90;999.90;;;;;;;17.93;44.25;95041.19;4967655;28;20045;-72
2022/05/31 05:11:09;;;;;;;1999.90;999.90;;;;;;;18.07;44.19;95051.47;4966894;28;20023;-71
2022/05/31 05:13:36;;;;;;;1999.90;999.90;;;;;;;18.24;43.84;95047.59;4965113;28;20089;-71
2022/05/31 05:16:01;;;;;;;1999.90;999.90;;;;;;;18.23;43.72;95037.19;4971074;28;20073;-69
2022/05/31 05:18:28;;;;;;;1999.90;999.90;;;;;;;18.26;43.51;95036.44;4981057;28;20031;-70
2022/05/31 05:20:53;;;;;;;1999.90;999.90;;;;;;;18.38;43.85;95037.09;4978002;28;20491;-69
2022/05/31 05:23:19;;;;;;;1999.90;999.90;;;;;;;18.60;43.82;95045.56;4969589;28;20045;-69
2022/05/31 05:25:52;;;;;;;1999.90;999.90;;;;;;;18.72;43.03;95031.19;4970890;28;20034;-71
2022/05/31 05:31:02;;;;;;;1999.90;999.90;;;;;;;19.14;42.23;95037.31;4970497;28;20066;-72
2022/05/31 05:33:29;;;;;;;1999.90;999.90;;;;;;;19.43;42.21;95043.91;4970314;28;20106;-69
2022/05/31 05:35:55;;;;;;;1999.90;999.90;;;;;;;19.65;41.61;95042.31;4951568;28;20039;-68
2022/05/31 05:38:20;;;;;;;1999.90;999.90;;;;;;;19.79;41.09;95036.34;4968626;28;20837;-67
2022/05/31 05:40:46;;;;;;;1999.90;999.90;;;;;;;19.86;40.34;95044.56;4971018;28;20027;-70
2022/05/31 05:43:11;;;;;;;1999.90;999.90;;;;;;;19.98;40.61;95025.44;4969858;28;20093;-71
2022/05/31 05:45:37;;;;;;;1999.90;999.90;;;;;;;20.16;39.94;95039.13;4970182;28;20031;-69
2022/05/31 05:48:04;;;;;;;1999.90;999.90;;;;;;;20.26;39.64;95051.22;4969204;28;20035;-70
2022/05/31 05:50:29;;;;;;;1999.90;999.90;;;;;;;20.31;39.65;95053.59;4969856;28;20027;-67
2022/05/31 05:53:01;;;;;;;1999.90;999.90;;;;;;;20.30;39.33;95051.25;4970340;28;20089;-66
2022/05/31 05:55:27;;;;;;;1999.90;999.90;;;;;;;20.43;39.21;95060.69;4970343;28;20026;-66
2022/05/31 05:57:54;;;;;;;1999.90;999.90;;;;;;;20.54;38.84;95055.44;4968490;28;20037;-67
2022/05/31 06:00:19;;;;;;;1999.90;999.90;;;;;;;20.23;39.39;95044.63;4965792;28;20118;-65
2022/05/31 06:02:51;;;;;;;1999.90;999.90;;;;;;;20.45;39.16;95047.56;4966583;28;20106;-66
2022/05/31 06:05:22;;;;;;;1999.90;999.90;;;;;;;20.61;38.55;95037.34;4967582;28;20022;-69
2022/05/31 06:07:54;;;;;;;1999.90;999.90;;;;;;;20.89;38.44;95025.28;4970470;28;20483;-66
2022/05/31 06:10:48;;;;;;;1999.90;999.90;;;;;;;21.37;37.88;95036.13;4969162;28;20520;-66
2022/05/31 06:13:26;;;;;;;1999.90;999.90;;;;;;;22.05;36.15;95046.22;4929067;28;20039;-66
2022/05/31 06:15:55;;;;;;;1999.90;999.90;;;;;;;22.41;35.12;95040.97;4968427;28;20047;-66
2022/05/31 06:18:31;;;;;;;1999.90;999.90;;;;;;;22.50;34.71;95041.41;4968012;28;20097;-66
2022/05/31 06:21:02;;;;;;;1999.90;999.90;;;;;;;22.47;34.50;95053.03;4971816;28;20037;-68
2022/05/31 06:23:28;;;;;;;1999.90;999.90;;;;;;;22.37;35.34;95061.09;4972451;28;20031;-66
2022/05/31 06:25:54;;;;;;;1999.90;999.90;;;;;;;22.10;35.39;95055.13;4970184;28;20033;-66
2022/05/31 06:28:19;;;;;;;1999.90;999.90;;;;;;;21.78;35.79;95042.22;4972296;28;20467;-68
2022/05/31 06:30:45;;;;;;;1999.90;999.90;;;;;;;21.58;36.12;95036.28;4972013;28;20041;-65
2022/05/31 06:33:10;;;;;;;1999.90;999.90;;;;;;;21.52;36.75;95041.28;4972584;28;20026;-66
2022/05/31 06:35:36;;;;;;;1999.90;999.90;;;;;;;21.49;37.11;95016.88;4972385;28;20042;-67
2022/05/31 06:38:03;;;;;;;1999.90;999.90;;;;;;;21.61;37.40;95051.78;4972718;28;20224;-66
2022/05/31 06:40:28;;;;;;;1999.90;999.90;;;;;;;21.59;37.51;95048.66;4971071;28;20031;-66
2022/05/31 06:42:54;;;;;;;1999.90;999.90;;;;;;;21.37;37.10;95044.25;4971864;28;20030;-66
2022/05/31 06:45:19;;;;;;;1999.90;999.90;;;;;;;21.47;37.55;95046.25;4973254;28;20181;-67
2022/05/31 06:47:45;;;;;;;1999.90;999.90;;;;;;;21.24;36.72;95047.22;4973171;28;20030;-68
2022/05/31 06:50:12;;;;;;;1999.90;999.90;;;;;;;21.48;36.99;95043.16;4972692;28;20038;-66
2022/05/31 06:58:17;;;;;;;1999.90;999.90;;;;;;;21.61;37.33;95046.38;4935603;28;20052;-67
2022/05/31 07:00:42;;;;;;;1999.90;999.90;;;;;;;21.71;37.20;95037.53;4971441;28;20392;-66
2022/05/31 07:03:08;;;;;;;1999.90;999.90;;;;;;;22.04;36.48;95036.53;4971473;28;20023;-67
2022/05/31 07:05:33;;;;;;;1999.90;999.90;;;;;;;22.37;35.42;95034.78;4972742;28;20026;-67
2022/05/31 07:07:59;;;;;;;1999.90;999.90;;;;;;;22.66;34.91;95041.06;4971728;28;20124;-66
2022/05/31 07:10:24;;;;;;;1999.90;999.90;;;;;;;22.92;34.87;95039.19;4971522;28;20031;-67
2022/05/31 07:12:50;;;;;;;1999.90;999.90;;;;;;;23.00;34.54;95030.69;4972565;28;20038;-66
2022/05/31 07:15:16;;;;;;;1999.90;999.90;;;;;;;23.13;33.86;95039.22;4971311;28;20030;-66
2022/05/31 07:17:41;;;;;;;1999.90;999.90;;;;;;;23.27;32.92;95039.22;4972642;28;20377;-66
2022/05/31 07:20:09;;;;;;;1999.90;999.90;;;;;;;23.22;32.98;95036.13;4969640;28;20031;-67
2022/05/31 07:22:36;;;;;;;1999.90;999.90;;;;;;;23.57;33.52;95040.78;4970749;28;20030;-67
2022/05/31 07:25:02;;;;;;;1999.90;999.90;;;;;;;23.17;33.68;95037.28;4970900;28;20117;-68
2022/05/31 07:27:27;;;;;;;1999.90;999.90;;;;;;;23.45;33.46;95044.66;4971986;28;20058;-66
2022/05/31 07:29:53;;;;;;;1999.90;999.90;;;;;;;23.43;33.21;95022.56;4971780;28;20027;-66
2022/05/31 07:32:18;;;;;;;1999.90;999.90;;;;;;;23.51;33.19;95023.34;4970383;28;20026;-66
2022/05/31 07:34:44;;;;;;;1999.90;999.90;;;;;;;23.56;32.98;95031.09;4971103;28;20034;-66
2022/05/31 07:37:09;;;;;;;1999.90;999.90;;;;;;;23.58;32.82;95023.31;4971953;28;20031;-68
2022/05/31 07:39:35;;;;;;;1999.90;999.90;;;;;;;23.56;33.28;95015.56;4969529;28;20030;-67
2022/05/31 07:42:01;;;;;;;1999.90;999.90;;;;;;;23.31;31.96;95023.72;4970518;28;20031;-66
2022/05/31 07:44:27;;;;;;;1999.90;999.90;;;;;;;23.22;32.32;95030.69;4971812;28;20494;-67
2022/05/31 07:46:54;;;;;;;1999.90;999.90;;;;;;;23.28;32.43;95027.22;4971600;28;20486;-67
2022/05/31 07:49:22;;;;;;;1999.90;999.90;;;;;;;23.10;30.76;95026.44;4969475;28;20051;-67
2022/05/31 07:51:47;;;;;;;1999.90;999.90;;;;;;;23.21;31.39;95024.50;4970294;28;20038;-67
2022/05/31 07:54:13;;;;;;;1999.90;999.90;;;;;;;23.40;31.51;95033.44;4970651;28;20042;-67
2022/05/31 07:56:39;;;;;;;1999.90;999.90;;;;;;;23.40;32.32;95025.28;4971617;28;20109;-67
2022/05/31 07:59:04;;;;;;;1999.90;999.90;;;;;;;23.50;32.39;95024.50;4969963;28;20428;-67
2022/05/31 08:01:30;;;;;;;1999.90;999.90;;;;;;;23.34;32.36;95019.47;4969878;28;20027;-67
2022/05/31 08:03:55;;;;;;;1999.90;999.90;;;;;;;23.65;32.51;95019.84;4969750;28;20035;-67
2022/05/31 08:06:23;;;;;;;1999.90;999.90;;;;;;;23.67;31.71;95020.22;4971686;28;20031;-67
2022/05/31 08:08:49;;;;;;;1999.90;999.90;;;;;;;23.13;32.29;95012.09;4968985;28;21691;-67
2022/05/31 08:11:22;;;;;;;1999.90;999.90;;;;;;;23.28;31.44;94993.88;4969617;28;20464;-67
2022/05/31 08:13:49;;;;;;;1999.90;999.90;;;;;;;23.41;31.30;94986.88;4970225;28;20030;-66
2022/05/31 08:16:21;;;;;;;1999.90;999.90;;;;;;;23.50;30.29;95017.13;4969236;28;20085;-67
2022/05/31 08:18:47;;;;;;;;;;;;;;;23.58;30.34;95020.59;4970678;28;20018;-67
2022/05/31 08:21:19;;;;;;;1999.90;999.90;;;;;;;23.64;30.17;95007.44;4968923;28;20283;-67
2022/05/31 08:23:44;;;;;;;;;;;;;;;23.77;29.82;95012.06;4970661;28;20034;-67
2022/05/31 08:26:10;;;;;;;1999.90;999.90;;;;;;;23.80;30.34;94994.19;4971113;28;19921;-67
2022/05/31 08:28:36;;;;;;;1999.90;999.90;;;;;;;23.83;29.84;94996.91;4970891;28;20027;-67
2022/05/31 08:31:09;;;;;;;1999.90;999.90;;;;;;;23.89;29.82;95001.94;4969453;28;20502;-66
2022/05/31 08:33:35;;;;;;;1999.90;999.90;;;;;;;23.68;30.35;94994.63;4968428;28;20439;-66
2022/05/31 08:36:00;;;;;;;1999.90;999.90;;;;;;;23.84;30.83;95003.88;4969689;28;20026;-66
2022/05/31 08:38:26;;;;;;;1999.90;999.90;;;;;;;24.11;31.12;95006.91;4969706;28;20031;-67
2022/05/31 08:41:17;;;;;;;1999.90;999.90;;;;;;;24.32;30.31;95000.63;4971153;28;20211;-67
2022/05/31 08:43:53;;;;;;;1999.90;999.90;;;;;;;24.32;30.00;94991.69;4969567;28;20043;-67
2022/05/31 08:46:46;;;;;;;1999.90;999.90;;;;;;;24.15;30.68;94989.81;4970965;28;20031;-67
2022/05/31 08:52:28;;;;;;;1999.90;999.90;;;;;;;24.00;30.45;94980.94;4970798;28;20084;-67
2022/05/31 08:57:50;;;;;;;1999.90;999.90;;;;;;;24.01;31.23;94988.72;4971061;28;20045;-67
2022/05/31 09:00:27;;;;;;;;;;;;;;;24.43;29.85;95000.59;4970932;28;20027;-67
2022/05/31 09:03:10;;;;;;;1999.90;999.90;;;;;;;24.55;29.87;94974.88;4969803;28;19929;-67
2022/05/31 09:05:43;;;;;;;1999.90;999.90;;;;;;;24.80;30.20;94967.34;4970477;28;20038;-67
2022/05/31 09:08:16;;;;;;;1999.90;999.90;;;;;;;24.70;30.67;94989.19;4969297;28;20054;-68
2022/05/31 09:11:16;;;;;;;1999.90;999.90;;;;;;;24.98;29.62;94978.09;4969470;28;20019;-68
2022/05/31 09:13:55;;;;;;;1999.90;999.90;;;;;;;25.15;29.94;94981.88;4969308;28;20170;-67
2022/05/31 09:16:29;;;;;;;1999.90;999.90;;;;;;;24.86;28.93;94971.19;4970000;28;20110;-67
2022/05/31 09:19:02;;;;;;;1999.90;999.90;;;;;;;24.06;31.01;94949.50;4949858;29;20420;-67
2022/05/31 09:21:41;;;;;;;1999.90;999.90;;;;;;;24.91;30.57;94972.69;4951695;28;20027;-67
2022/05/31 09:24:21;;;;;;;1999.90;999.90;;;;;;;24.74;30.25;94947.19;4963936;28;20463;-67
2022/05/31 09:27:03;;;;;;;1999.90;999.90;;;;;;;25.19;30.48;94965.53;4969387;28;20035;-67
2022/05/31 09:30:04;;;;;;;1999.90;999.90;;;;;;;24.83;31.25;94973.94;4970379;28;20027;-67
2022/05/31 09:32:51;;;;;;;1999.90;999.90;;;;;;;25.04;30.39;94981.16;4970154;28;20034;-67
2022/05/31 09:35:40;;;;;;;1999.90;999.90;;;;;;;25.29;29.41;94965.44;4967520;28;20152;-67
2022/05/31 09:38:24;;;;;;;1999.90;999.90;;;;;;;24.88;29.82;94977.00;4967794;28;20034;-67
2022/05/31 09:40:52;;;;;;;1999.90;999.90;;;;;;;25.21;30.31;94963.94;4970535;28;20383;-67
2022/05/31 09:43:26;;;;;;;1999.90;999.90;;;;;;;25.53;30.27;94965.59;4968912;28;20045;-67
2022/05/31 09:46:06;;;;;;;1999.90;999.90;;;;;;;25.87;30.28;94955.53;4967756;28;20031;-66
2022/05/31 09:48:31;;;;;;;1999.90;999.90;;;;;;;25.92;29.38;94951.59;4970170;28;20023;-67
2022/05/31 09:51:19;;;;;;;1999.90;999.90;;;;;;;25.96;28.99;94957.00;4969015;28;20035;-67
2022/05/31 09:59:23;;;;;;;1999.90;999.90;;;;;;;26.04;29.30;94961.16;4972825;28;20041;-66
2022/05/31 10:01:48;;;;;;;1999.90;999.90;;;;;;;25.97;29.32;94929.34;4972583;28;20111;-67
2022/05/31 10:04:26;;;;;;;1999.90;999.90;;;;;;;26.50;29.67;94951.66;4973554;28;20035;-67
2022/05/31 10:07:01;;;;;;;1999.90;999.90;;;;;;;26.65;29.56;94947.53;4973014;28;20047;-67
2022/05/31 10:09:40;;;;;;;1999.90;999.90;;;;;;;26.78;28.17;94948.50;4972147;28;20078;-66
2022/05/31 10:12:21;;;;;;;1999.90;999.90;;;;;;;25.70;30.03;94940.13;4971670;28;20050;-67
2022/05/31 10:14:49;;;;;;;1999.90;999.90;;;;;;;26.14;29.05;94922.09;4972776;28;20427;-67
2022/05/31 10:17:28;;;;;;;1999.90;999.90;;;;;;;26.62;28.77;94938.22;4971463;28;20037;-67
2022/05/31 10:20:12;;;;;;;1999.90;999.90;;;;;;;26.81;28.81;94934.03;4973374;28;20039;-67
2022/05/31 10:22:56;;;;;;;1999.90;999.90;;;;;;;26.82;29.63;94929.34;4972475;28;20050;-67
2022/05/31 10:25:40;;;;;;;1999.90;999.90;;;;;;;27.02;28.29;94924.72;4972060;28;20031;-67
2022/05/31 10:28:19;;;;;;;1999.90;999.90;;;;;;;27.20;27.89;94919.00;4972920;28;20496;-67
2022/05/31 10:30:51;;;;;;;1999.90;999.90;;;;;;;27.34;27.73;94904.34;4970100;28;20031;-67
2022/05/31 10:33:23;;;;;;;1999.90;999.90;;;;;;;27.39;26.63;94923.75;4972699;28;20496;-67
2022/05/31 10:36:06;;;;;;;1999.90;999.90;;;;;;;27.41;26.87;94915.91;4971368;28;20042;-68
2022/05/31 10:38:32;;;;;;;1999.90;999.90;;;;;;;26.77;26.75;94892.41;4953720;28;20035;-68
2022/05/31 10:41:05;;;;;;;1999.90;999.90;;;;;;;27.06;27.04;94889.94;4952479;28;20110;-67
2022/05/31 10:43:36;;;;;;;1999.90;999.90;;;;;;;26.70;27.50;94885.09;4956472;28;20488;-67
2022/05/31 10:46:13;;;;;;;1999.90;999.90;;;;;;;26.70;27.83;94889.78;4973244;28;20042;-66
2022/05/31 10:48:50;;;;;;;1999.90;999.90;;;;;;;27.45;26.37;94896.72;4972779;28;20031;-66
2022/05/31 10:51:28;;;;;;;1999.90;999.90;;;;;;;27.85;25.61;94886.59;4970752;28;20093;-67
2022/05/31 10:54:17;;;;;;;1999.90;999.90;;;;;;;28.50;24.28;94903.19;4972981;28;20573;-66
2022/05/31 10:57:04;;;;;;;1999.90;999.90;;;;;;;29.45;24.36;94887.59;4967110;28;20438;-66
2022/05/31 10:59:49;;;;;;;1999.90;999.90;;;;;;;29.61;22.64;94881.31;4963151;28;20101;-67
2022/05/31 11:02:52;;;;;;;1999.90;999.90;;;;;;;30.52;22.76;94895.53;4971190;28;20034;-66
2022/05/31 11:05:23;;;;;;;1999.90;999.90;;;;;;;31.09;20.96;94892.97;4971235;28;20536;-67
2022/05/31 11:13:46;;;;;;;1999.90;999.90;;;;;;;31.43;20.09;94899.72;4971682;28;20084;-67
2022/05/31 11:16:33;;;;;;;1999.90;999.90;;;;;;;32.00;20.29;94898.50;4969804;28;20044;-67
2022/05/31 11:19:24;;;;;;;1999.90;999.90;;;;;;;33.00;19.85;94900.19;4970806;28;20282;-67
2022/05/31 11:21:52;;;;;;;1999.90;999.90;;;;;;;33.44;18.95;94897.22;4970353;28;20031;-70
2022/05/31 11:24:50;;;;;;;1999.90;999.90;;;;;;;33.46;18.86;94872.72;4972022;28;20086;-67
2022/05/31 11:27:37;;;;;;;1999.90;999.90;;;;;;;30.86;19.94;94901.56;4972177;28;20118;-67
2022/05/31 11:30:21;;;;;;;1999.90;999.90;;;;;;;31.49;20.38;94884.97;4969721;28;20535;-68
2022/05/31 11:32:53;;;;;;;1999.90;999.90;;;;;;;31.49;20.80;94892.44;4970827;28;20125;-68
2022/05/31 11:35:43;;;;;;;1999.90;999.90;;;;;;;30.19;22.67;94892.22;4970100;28;20039;-68
2022/05/31 11:38:18;;;;;;;1999.90;999.90;;;;;;;30.65;21.85;94892.00;4970483;28;20551;-68